Time;durP1;ratioP1;P1;durP2;ratioP2;P2;SDS_P1;SDS_P2;PMS_P1;PMS_P2;Temp;Humidity;BMP_temperature;BMP_pressure;BME280_temperature;BME280_humidity;BME280_pressure;Samples;Min_cycle;Max_cycle;Signal;HPM_P1;HPM_P2
2021/06/10 00:00:57;;;;;;;;;;;29.20;84.70;;;;;;5064294;28;19905;-54
2021/06/10 00:03:24;;;;;;;;;;;29.10;84.60;;;;;;5081607;28;19978;-55
2021/06/10 00:05:50;;;;;;;;;;;29.10;84.50;;;;;;5081890;28;20097;-54
2021/06/10 00:08:16;;;;;;;;;;;29.00;84.70;;;;;;5083833;28;19912;-52
2021/06/10 00:10:43;;;;;;;;;;;29.00;85.10;;;;;;5086506;28;20216;-58
2021/06/10 00:13:10;;;;;;;;;;;29.00;85.00;;;;;;5087787;28;19916;-53
2021/06/10 00:15:37;;;;;;;;;;;28.90;85.60;;;;;;5087150;28;19905;-55
2021/06/10 00:18:04;;;;;;;;;;;29.00;85.80;;;;;;5087701;28;19958;-54
2021/06/10 00:20:32;;;;;;;;;;;29.00;86.40;;;;;;5087200;28;19905;-50
2021/06/10 00:22:58;;;;;;;;;;;28.90;86.10;;;;;;5086821;28;19912;-47
2021/06/10 00:25:25;;;;;;;;;;;29.00;86.20;;;;;;5086760;28;19972;-51
2021/06/10 00:27:55;;;;;;;;;;;28.90;86.30;;;;;;5086959;28;19912;-52
2021/06/10 00:30:21;;;;;;;;;;;28.90;86.50;;;;;;5086165;28;19950;-47
2021/06/10 00:32:49;;;;;;;;;;;28.90;86.60;;;;;;5087015;28;20023;-52
2021/06/10 00:35:16;;;;;;;;;;;28.90;86.60;;;;;;5086422;28;19904;-50
2021/06/10 00:37:43;;;;;;;;;;;28.90;87.00;;;;;;5069370;28;19920;-52
2021/06/10 00:40:09;;;;;;;;;;;28.90;87.10;;;;;;5068835;28;20208;-50
2021/06/10 00:42:36;;;;;;;;;;;28.80;87.10;;;;;;5068458;28;19908;-47
2021/06/10 00:45:04;;;;;;;;;;;28.80;87.40;;;;;;5086871;28;19908;-45
2021/06/10 00:47:30;;;;;;;;;;;28.80;87.40;;;;;;5086828;28;20070;-53
2021/06/10 00:49:57;;;;;;;;;;;28.70;87.30;;;;;;5086656;28;19909;-51
2021/06/10 00:52:23;;;;;;;;;;;28.70;86.90;;;;;;5086595;28;19909;-49
2021/06/10 00:54:50;;;;;;;;;;;28.70;87.20;;;;;;5086680;28;20258;-48
2021/06/10 00:57:16;;;;;;;;;;;28.60;86.90;;;;;;5085578;28;20097;-51
2021/06/10 00:59:42;;;;;;;;;;;28.70;86.90;;;;;;5085988;28;19909;-50
2021/06/10 01:02:08;;;;;;;;;;;28.70;86.60;;;;;;5086605;28;20181;-51
2021/06/10 01:04:34;;;;;;;;;;;28.60;86.40;;;;;;5086705;28;20010;-57
2021/06/10 01:07:16;;;;;;;;;;;28.70;86.40;;;;;;5086198;28;19912;-53
2021/06/10 01:09:45;;;;;;;;;;;28.70;86.10;;;;;;5086368;28;19905;-46
2021/06/10 01:12:23;;;;;;;;;;;28.70;86.10;;;;;;5086298;28;19913;-56
2021/06/10 01:14:55;;;;;;;;;;;28.70;86.20;;;;;;5086306;28;19915;-51
2021/06/10 01:17:22;;;;;;;;;;;28.60;86.60;;;;;;5086472;28;20205;-51
2021/06/10 01:19:48;;;;;;;;;;;28.70;86.10;;;;;;5085769;28;19911;-49
2021/06/10 01:22:23;;;;;;;;;;;28.60;85.70;;;;;;5086387;28;20003;-50
2021/06/10 01:25:12;;;;;;;;;;;28.60;85.70;;;;;;5086277;28;19904;-52
2021/06/10 01:27:40;;;;;;;;;;;28.60;85.70;;;;;;5086588;28;20197;-52
2021/06/10 01:30:08;;;;;;;;;;;28.60;85.60;;;;;;5086149;28;19911;-49
2021/06/10 01:32:36;;;;;;;;;;;28.50;85.70;;;;;;5086569;28;19920;-48
2021/06/10 01:35:03;;;;;;;;;;;28.50;85.50;;;;;;5085648;28;19974;-49
2021/06/10 01:37:29;;;;;;;;;;;28.50;85.50;;;;;;5086247;28;19991;-47
2021/06/10 01:39:57;;;;;;;;;;;28.50;85.60;;;;;;5086017;28;20185;-51
2021/06/10 01:42:24;;;;;;;;;;;28.50;85.40;;;;;;5085925;28;20173;-49
2021/06/10 01:44:51;;;;;;;;;;;28.50;85.30;;;;;;5085763;28;19905;-50
2021/06/10 01:47:17;;;;;;;;;;;28.50;85.30;;;;;;5085722;28;19916;-50
2021/06/10 01:49:44;;;;;;;;;;;28.50;85.20;;;;;;5085789;28;19926;-50
2021/06/10 01:52:10;;;;;;;;;;;28.50;85.10;;;;;;5067611;28;20189;-48
2021/06/10 01:54:37;;;;;;;;;;;28.50;85.10;;;;;;5085482;28;19923;-49
2021/06/10 01:57:04;;;;;;;;;;;28.50;85.00;;;;;;5085188;28;20126;-49
2021/06/10 01:59:31;;;;;;;;;;;28.50;85.00;;;;;;5085606;28;19905;-51
2021/06/10 02:02:05;;;;;;;;;;;28.50;85.00;;;;;;5085407;28;20107;-51
2021/06/10 02:04:31;;;;;;;;;;;28.50;84.70;;;;;;5085357;28;19947;-50
2021/06/10 02:06:59;;;;;;;;;;;28.50;84.50;;;;;;5085302;28;19959;-52
2021/06/10 02:09:26;;;;;;;;;;;28.50;84.20;;;;;;5085188;28;19916;-50
2021/06/10 02:11:52;;;;;;;;;;;28.50;84.10;;;;;;5085320;28;19956;-47
2021/06/10 02:14:19;;;;;;;;;;;28.50;83.90;;;;;;5085167;28;19979;-50
2021/06/10 02:16:46;;;;;;;;;;;28.50;83.80;;;;;;5085249;28;19913;-55
2021/06/10 02:19:14;;;;;;;;;;;28.50;83.60;;;;;;5085192;28;19904;-51
2021/06/10 02:21:40;;;;;;;;;;;28.50;83.50;;;;;;5085132;28;19921;-48
2021/06/10 02:24:07;;;;;;;;;;;28.50;83.50;;;;;;5067121;28;20148;-53
2021/06/10 02:26:33;;;;;;;;;;;28.50;83.40;;;;;;5084670;28;19913;-47
2021/06/10 02:28:59;;;;;;;;;;;28.50;83.30;;;;;;5084811;28;19904;-50
2021/06/10 02:31:25;;;;;;;;;;;28.50;83.20;;;;;;5083858;28;19920;-53
2021/06/10 02:33:52;;;;;;;;;;;28.50;83.20;;;;;;5084553;28;19915;-52
2021/06/10 02:36:18;;;;;;;;;;;28.50;83.20;;;;;;5066572;28;19904;-52
2021/06/10 02:38:48;;;;;;;;;;;28.40;83.10;;;;;;5084823;28;19904;-46
2021/06/10 02:41:15;;;;;;;;;;;28.40;83.30;;;;;;5084458;28;19972;-50
2021/06/10 02:43:42;;;;;;;;;;;28.40;83.30;;;;;;5084526;28;19901;-48
2021/06/10 02:46:09;;;;;;;;;;;28.40;83.20;;;;;;5084483;28;19905;-47
2021/06/10 02:48:36;;;;;;;;;;;28.50;83.40;;;;;;5084588;28;19954;-57
2021/06/10 02:51:03;;;;;;;;;;;28.50;83.20;;;;;;5084419;28;19927;-50
2021/06/10 02:53:30;;;;;;;;;;;28.50;82.80;;;;;;5083771;28;19965;-53
2021/06/10 02:55:59;;;;;;;;;;;28.50;82.50;;;;;;5084408;28;19931;-47
2021/06/10 02:58:26;;;;;;;;;;;28.50;82.10;;;;;;5085046;28;19987;-48
2021/06/10 03:00:52;;;;;;;;;;;28.50;81.80;;;;;;5084089;28;19911;-50
2021/06/10 03:03:19;;;;;;;;;;;28.50;81.70;;;;;;5084913;28;19954;-50
2021/06/10 03:05:45;;;;;;;;;;;28.50;81.40;;;;;;5083986;28;19950;-51
2021/06/10 03:08:13;;;;;;;;;;;28.50;81.30;;;;;;5084784;28;19908;-50
2021/06/10 03:10:42;;;;;;;;;;;28.50;81.30;;;;;;5084103;28;19909;-47
2021/06/10 03:13:09;;;;;;;;;;;28.40;81.00;;;;;;5084757;28;20092;-49
2021/06/10 03:15:36;;;;;;;;;;;28.40;81.00;;;;;;5065984;28;19915;-57
2021/06/10 03:18:03;;;;;;;;;;;28.40;81.10;;;;;;5084723;28;19913;-49
2021/06/10 03:20:30;;;;;;;;;;;28.40;81.00;;;;;;5066194;28;19912;-53
2021/06/10 03:22:56;;;;;;;;;;;28.40;80.80;;;;;;5084601;28;19908;-47
2021/06/10 03:25:23;;;;;;;;;;;28.40;80.80;;;;;;5066494;28;19912;-49
2021/06/10 03:27:50;;;;;;;;;;;28.40;80.80;;;;;;5084798;28;19932;-47
2021/06/10 03:30:17;;;;;;;;;;;28.40;80.80;;;;;;5083801;28;20194;-51
2021/06/10 03:32:43;;;;;;;;;;;28.40;80.70;;;;;;5079102;28;20131;-47
2021/06/10 03:35:10;;;;;;;;;;;28.40;80.70;;;;;;5102634;28;19912;-51
2021/06/10 03:37:38;;;;;;;;;;;28.40;80.60;;;;;;5066437;28;20078;-47
2021/06/10 03:40:06;;;;;;;;;;;28.30;80.30;;;;;;5066386;28;19971;-47
2021/06/10 03:42:32;;;;;;;;;;;28.30;80.20;;;;;;5085162;28;19912;-46
2021/06/10 03:45:02;;;;;;;;;;;28.30;80.20;;;;;;5087770;28;19904;-47
2021/06/10 03:47:29;;;;;;;;;;;28.30;80.20;;;;;;5088090;28;20280;-45
2021/06/10 03:49:55;;;;;;;;;;;28.30;80.20;;;;;;5087274;28;19936;-47
2021/06/10 03:52:25;;;;;;;;;;;28.30;80.10;;;;;;5088029;28;19916;-49
2021/06/10 03:54:52;;;;;;;;;;;28.30;80.30;;;;;;5087478;28;19923;-52
2021/06/10 03:57:18;;;;;;;;;;;28.30;80.10;;;;;;5069727;28;19913;-46
2021/06/10 03:59:44;;;;;;;;;;;28.30;80.10;;;;;;5087461;28;20243;-51
2021/06/10 04:02:10;;;;;;;;;;;28.30;80.20;;;;;;5087672;28;19965;-46
2021/06/10 04:04:36;;;;;;;;;;;28.20;80.40;;;;;;5087489;28;20211;-50
2021/06/10 04:07:03;;;;;;;;;;;28.20;81.00;;;;;;5069673;28;19920;-49
2021/06/10 04:09:29;;;;;;;;;;;28.20;80.80;;;;;;5087344;28;19943;-49
2021/06/10 04:11:55;;;;;;;;;;;28.20;80.70;;;;;;5087669;28;19913;-49
2021/06/10 04:14:21;;;;;;;;;;;28.20;80.70;;;;;;5086952;28;19910;-47
2021/06/10 04:16:47;;;;;;;;;;;28.20;80.60;;;;;;5087418;28;19913;-50
2021/06/10 04:19:14;;;;;;;;;;;28.20;80.80;;;;;;5087695;28;19905;-56
2021/06/10 04:21:40;;;;;;;;;;;28.20;80.80;;;;;;5087660;28;20152;-50
2021/06/10 04:24:06;;;;;;;;;;;28.10;81.00;;;;;;5086355;28;19905;-50
2021/06/10 04:26:32;;;;;;;;;;;28.10;81.10;;;;;;5087221;28;19913;-46
2021/06/10 04:28:59;;;;;;;;;;;28.10;81.10;;;;;;5069423;28;19966;-48
2021/06/10 04:31:25;;;;;;;;;;;28.10;81.00;;;;;;5087181;28;19920;-48
2021/06/10 04:33:51;;;;;;;;;;;28.10;81.00;;;;;;5086886;28;19908;-46
2021/06/10 04:36:17;;;;;;;;;;;28.10;81.10;;;;;;5087039;28;19904;-48
2021/06/10 04:38:44;;;;;;;;;;;28.10;80.90;;;;;;5086913;28;19951;-50
2021/06/10 04:41:10;;;;;;;;;;;28.10;81.00;;;;;;5086768;28;19912;-53
2021/06/10 04:43:36;;;;;;;;;;;28.00;81.30;;;;;;5086929;28;19911;-49
2021/06/10 04:46:03;;;;;;;;;;;28.00;81.60;;;;;;5068880;28;19912;-50
2021/06/10 04:48:29;;;;;;;;;;;28.10;81.90;;;;;;5086745;28;19905;-49
2021/06/10 04:50:55;;;;;;;;;;;28.00;82.20;;;;;;5086792;28;19905;-47
2021/06/10 04:53:22;;;;;;;;;;;28.00;82.30;;;;;;5086867;28;19927;-52
2021/06/10 04:55:48;;;;;;;;;;;28.00;82.30;;;;;;5085640;28;19936;-51
2021/06/10 04:58:15;;;;;;;;;;;28.00;82.10;;;;;;5087147;28;19913;-49
2021/06/10 05:00:41;;;;;;;;;;;28.00;82.90;;;;;;5086697;28;19912;-54
2021/06/10 05:03:07;;;;;;;;;;;28.00;83.00;;;;;;5086946;28;19912;-50
2021/06/10 05:05:34;;;;;;;;;;;28.00;83.00;;;;;;5068798;28;20108;-51
2021/06/10 05:08:01;;;;;;;;;;;28.00;83.00;;;;;;5087318;28;19943;-51
2021/06/10 05:10:27;;;;;;;;;;;28.00;82.90;;;;;;5086834;28;19908;-55
2021/06/10 05:12:54;;;;;;;;;;;27.90;82.70;;;;;;5086786;28;19920;-57
2021/06/10 05:15:20;;;;;;;;;;;27.90;82.60;;;;;;5086835;28;20101;-50
2021/06/10 05:17:46;;;;;;;;;;;27.90;82.50;;;;;;5086961;28;19979;-53
2021/06/10 05:20:13;;;;;;;;;;;27.90;82.40;;;;;;5086648;28;19905;-53
2021/06/10 05:22:39;;;;;;;;;;;27.90;82.50;;;;;;5086546;28;19913;-52
2021/06/10 05:25:05;;;;;;;;;;;27.80;82.20;;;;;;5068773;28;19904;-51
2021/06/10 05:27:33;;;;;;;;;;;27.90;82.10;;;;;;5086396;28;20078;-52
2021/06/10 05:30:00;;;;;;;;;;;27.80;81.80;;;;;;5086443;28;20104;-50
2021/06/10 05:32:27;;;;;;;;;;;27.80;81.70;;;;;;5086454;28;19943;-51
2021/06/10 05:34:53;;;;;;;;;;;27.80;81.80;;;;;;5086185;28;19981;-52
2021/06/10 05:37:19;;;;;;;;;;;27.80;82.40;;;;;;5086992;28;19919;-52
2021/06/10 05:39:45;;;;;;;;;;;27.70;82.50;;;;;;5086386;28;19928;-50
2021/06/10 05:42:13;;;;;;;;;;;27.70;82.50;;;;;;5086159;28;19913;-50
2021/06/10 05:44:40;;;;;;;;;;;27.70;82.90;;;;;;5086115;28;19904;-53
2021/06/10 05:47:06;;;;;;;;;;;27.70;82.90;;;;;;5086187;28;19955;-53
2021/06/10 05:49:32;;;;;;;;;;;27.70;83.20;;;;;;5085764;28;19945;-54
2021/06/10 05:51:58;;;;;;;;;;;27.70;83.20;;;;;;5086007;28;20084;-53
2021/06/10 05:54:24;;;;;;;;;;;27.70;83.20;;;;;;5085298;28;19924;-54
2021/06/10 05:56:51;;;;;;;;;;;27.60;83.30;;;;;;5085443;28;19917;-51
2021/06/10 05:59:17;;;;;;;;;;;27.60;83.60;;;;;;5085650;28;19905;-47
2021/06/10 06:01:44;;;;;;;;;;;27.60;83.90;;;;;;5085539;28;19919;-51
2021/06/10 06:04:10;;;;;;;;;;;27.60;84.10;;;;;;5085408;28;19904;-50
2021/06/10 06:06:38;;;;;;;;;;;27.50;84.60;;;;;;5085893;28;19985;-50
2021/06/10 06:09:08;;;;;;;;;;;27.50;85.30;;;;;;5085366;28;19908;-46
2021/06/10 06:11:34;;;;;;;;;;;27.40;85.40;;;;;;5085580;28;19979;-50
2021/06/10 06:14:07;;;;;;;;;;;27.40;85.60;;;;;;5085023;28;19909;-50
2021/06/10 06:16:37;;;;;;;;;;;27.40;85.40;;;;;;5085397;28;20089;-54
2021/06/10 06:19:05;;;;;;;;;;;27.30;85.00;;;;;;5085150;28;19911;-45
2021/06/10 06:21:32;;;;;;;;;;;27.30;84.60;;;;;;5085421;28;19936;-49
2021/06/10 06:23:58;;;;;;;;;;;27.30;84.90;;;;;;5085091;28;19963;-52
2021/06/10 06:26:24;;;;;;;;;;;27.40;85.10;;;;;;5085595;28;19912;-49
2021/06/10 06:28:53;;;;;;;;;;;27.40;85.10;;;;;;5085250;28;19908;-51
2021/06/10 06:31:20;;;;;;;;;;;27.30;84.80;;;;;;5085560;28;19904;-51
2021/06/10 06:33:46;;;;;;;;;;;27.30;84.70;;;;;;5084710;28;20140;-53
2021/06/10 06:36:12;;;;;;;;;;;27.40;84.90;;;;;;5084880;28;19927;-54
2021/06/10 06:38:39;;;;;;;;;;;27.30;84.90;;;;;;5084805;28;19905;-49
2021/06/10 06:41:05;;;;;;;;;;;27.30;84.90;;;;;;5084528;28;19976;-52
2021/06/10 06:43:32;;;;;;;;;;;27.20;85.00;;;;;;5085074;28;19908;-50
2021/06/10 06:45:58;;;;;;;;;;;27.20;85.30;;;;;;5085275;28;19904;-49
2021/06/10 06:48:25;;;;;;;;;;;27.20;85.70;;;;;;5084971;28;20208;-47
2021/06/10 06:50:51;;;;;;;;;;;27.20;85.60;;;;;;5084995;28;19946;-52
2021/06/10 06:53:17;;;;;;;;;;;27.20;85.90;;;;;;5084966;28;19956;-49
2021/06/10 06:55:44;;;;;;;;;;;27.20;86.30;;;;;;5084618;28;19928;-51
2021/06/10 06:58:10;;;;;;;;;;;27.20;86.40;;;;;;5084854;28;19971;-47
2021/06/10 07:00:36;;;;;;;;;;;27.20;85.80;;;;;;5084585;28;19913;-50
2021/06/10 07:03:02;;;;;;;;;;;27.20;85.80;;;;;;5084727;28;19913;-48
2021/06/10 07:05:28;;;;;;;;;;;27.10;85.70;;;;;;5084361;28;19908;-53
2021/06/10 07:07:55;;;;;;;;;;;27.10;86.00;;;;;;5085208;28;19919;-46
2021/06/10 07:10:21;;;;;;;;;;;27.20;86.30;;;;;;5084445;28;19946;-51
2021/06/10 07:12:47;;;;;;;;;;;27.20;85.70;;;;;;5084921;28;19920;-52
2021/06/10 07:15:14;;;;;;;;;;;27.20;86.00;;;;;;5084389;28;20074;-57
2021/06/10 07:17:40;;;;;;;;;;;27.20;85.70;;;;;;5084434;28;19946;-49
2021/06/10 07:20:06;;;;;;;;;;;27.20;85.60;;;;;;5084096;28;20198;-53
2021/06/10 07:22:36;;;;;;;;;;;27.20;85.40;;;;;;5084646;28;20074;-48
2021/06/10 07:25:03;;;;;;;;;;;27.20;84.90;;;;;;5084577;28;19957;-48
2021/06/10 07:27:29;;;;;;;;;;;27.20;85.10;;;;;;5085117;28;19913;-50
2021/06/10 07:29:57;;;;;;;;;;;27.20;85.30;;;;;;5084922;28;19904;-47
2021/06/10 07:32:23;;;;;;;;;;;27.20;85.60;;;;;;5066812;28;20193;-50
2021/06/10 07:34:49;;;;;;;;;;;27.20;85.80;;;;;;5083867;28;19915;-47
2021/06/10 07:37:15;;;;;;;;;;;27.20;86.00;;;;;;5085207;28;19912;-50
2021/06/10 07:39:41;;;;;;;;;;;27.20;86.30;;;;;;5084230;28;19946;-52
2021/06/10 07:42:08;;;;;;;;;;;27.20;86.10;;;;;;5084086;28;19912;-50
2021/06/10 07:44:34;;;;;;;;;;;27.20;85.70;;;;;;5084289;28;19904;-50
2021/06/10 07:47:00;;;;;;;;;;;27.20;85.70;;;;;;5084632;28;19912;-50
2021/06/10 07:49:27;;;;;;;;;;;27.20;86.20;;;;;;5084134;28;19905;-50
2021/06/10 07:51:53;;;;;;;;;;;27.20;86.90;;;;;;5084349;28;19912;-50
2021/06/10 07:54:19;;;;;;;;;;;27.20;87.20;;;;;;5083933;28;19922;-51
2021/06/10 07:56:45;;;;;;;;;;;27.20;87.00;;;;;;5084348;28;19913;-51
2021/06/10 07:59:12;;;;;;;;;;;27.10;87.30;;;;;;5084362;28;19913;-51
2021/06/10 08:01:39;;;;;;;;;;;27.10;87.30;;;;;;5084313;28;19912;-51
2021/06/10 08:04:05;;;;;;;;;;;27.10;87.60;;;;;;5083722;28;20136;-51
2021/06/10 08:06:31;;;;;;;;;;;27.10;87.30;;;;;;5084262;28;19919;-49
2021/06/10 08:08:57;;;;;;;;;;;27.00;87.30;;;;;;5084105;28;19905;-50
2021/06/10 08:11:24;;;;;;;;;;;27.00;87.30;;;;;;5084227;28;19912;-50
2021/06/10 08:13:51;;;;;;;;;;;27.00;87.30;;;;;;5084016;28;19962;-49
2021/06/10 08:16:17;;;;;;;;;;;26.90;87.20;;;;;;5084096;28;19968;-51
2021/06/10 08:18:43;;;;;;;;;;;26.90;86.90;;;;;;5083867;28;19908;-52
2021/06/10 08:21:09;;;;;;;;;;;27.00;87.00;;;;;;5083768;28;19912;-49
2021/06/10 08:23:35;;;;;;;;;;;26.90;87.10;;;;;;5084063;28;19939;-50
2021/06/10 08:26:03;;;;;;;;;;;26.90;87.30;;;;;;5084046;28;19912;-49
2021/06/10 08:28:30;;;;;;;;;;;26.90;87.50;;;;;;5083826;28;19917;-52
2021/06/10 08:30:57;;;;;;;;;;;26.90;87.20;;;;;;5086825;28;19932;-56
2021/06/10 08:33:24;;;;;;;;;;;26.90;87.40;;;;;;5088071;28;19916;-50
2021/06/10 08:35:52;;;;;;;;;;;26.90;87.50;;;;;;5087314;28;19908;-52
2021/06/10 08:38:18;;;;;;;;;;;26.90;87.30;;;;;;5088194;28;19912;-50
2021/06/10 08:40:45;;;;;;;;;;;26.80;87.10;;;;;;5087134;28;19911;-53
2021/06/10 08:43:11;;;;;;;;;;;26.80;87.00;;;;;;5087249;28;19913;-51
2021/06/10 08:45:42;;;;;;;;;;;26.80;87.20;;;;;;5087411;28;19971;-51
2021/06/10 08:48:08;;;;;;;;;;;26.80;87.30;;;;;;5087822;28;19983;-50
2021/06/10 08:50:34;;;;;;;;;;;26.80;87.30;;;;;;5086753;28;19912;-52
2021/06/10 08:53:01;;;;;;;;;;;26.80;87.00;;;;;;5087249;28;20189;-51
2021/06/10 08:55:28;;;;;;;;;;;26.80;87.10;;;;;;5087228;28;20161;-49
2021/06/10 08:57:54;;;;;;;;;;;26.80;87.40;;;;;;5087511;28;19954;-52
2021/06/10 09:00:21;;;;;;;;;;;26.80;87.40;;;;;;5086980;28;19967;-51
2021/06/10 09:02:55;;;;;;;;;;;26.80;87.50;;;;;;5087003;28;19912;-52
2021/06/10 09:05:21;;;;;;;;;;;26.70;87.50;;;;;;5086951;28;20167;-52
2021/06/10 09:07:52;;;;;;;;;;;26.70;87.50;;;;;;5087532;28;19908;-47
2021/06/10 09:10:20;;;;;;;;;;;26.70;87.60;;;;;;5086830;28;19912;-50
2021/06/10 09:12:51;;;;;;;;;;;26.80;87.60;;;;;;5087250;28;19913;-49
2021/06/10 09:15:18;;;;;;;;;;;26.70;87.70;;;;;;5086509;28;19970;-46
2021/06/10 09:17:44;;;;;;;;;;;26.70;88.30;;;;;;5086888;28;19953;-51
2021/06/10 09:20:19;;;;;;;;;;;26.70;88.70;;;;;;5086275;28;19936;-50
2021/06/10 09:22:50;;;;;;;;;;;26.70;88.60;;;;;;5086813;28;19909;-50
2021/06/10 09:25:19;;;;;;;;;;;26.70;88.60;;;;;;5086452;28;19975;-52
2021/06/10 09:27:58;;;;;;;;;;;26.70;88.40;;;;;;5086845;28;19916;-50
2021/06/10 09:30:35;;;;;;;;;;;26.60;88.30;;;;;;5086544;28;19916;-53
2021/06/10 09:33:02;;;;;;;;;;;26.60;88.40;;;;;;5086631;28;19935;-51
2021/06/10 09:35:29;;;;;;;;;;;26.60;88.40;;;;;;5086169;28;19912;-51
2021/06/10 09:37:59;;;;;;;;;;;26.60;88.40;;;;;;5086645;28;19932;-50
2021/06/10 09:40:26;;;;;;;;;;;26.60;88.70;;;;;;5085480;28;20180;-52
2021/06/10 09:42:52;;;;;;;;;;;26.50;89.10;;;;;;5086480;28;19909;-50
2021/06/10 09:45:19;;;;;;;;;;;26.50;89.30;;;;;;5086139;28;19908;-57
2021/06/10 09:47:47;;;;;;;;;;;26.50;89.30;;;;;;5086529;28;19950;-51
2021/06/10 09:50:16;;;;;;;;;;;26.40;88.80;;;;;;5085999;28;19920;-50
2021/06/10 09:52:46;;;;;;;;;;;26.40;89.40;;;;;;5085641;28;19908;-50
2021/06/10 09:55:26;;;;;;;;;;;26.40;90.00;;;;;;5086096;28;20237;-50
2021/06/10 09:57:52;;;;;;;;;;;26.40;90.00;;;;;;5086358;28;19913;-57
2021/06/10 10:00:25;;;;;;;;;;;26.30;89.70;;;;;;5085582;28;19905;-49
2021/06/10 10:02:52;;;;;;;;;;;26.30;90.00;;;;;;5085743;28;19912;-46
2021/06/10 10:05:21;;;;;;;;;;;26.30;90.10;;;;;;5085527;28;19909;-52
2021/06/10 10:07:47;;;;;;;;;;;26.30;90.10;;;;;;5086152;28;20137;-52
2021/06/10 10:10:14;;;;;;;;;;;26.30;90.20;;;;;;5085204;28;19946;-53
2021/06/10 10:12:43;;;;;;;;;;;26.20;90.40;;;;;;5085104;28;19987;-55
2021/06/10 10:15:10;;;;;;;;;;;26.30;90.60;;;;;;5085517;28;19970;-50
2021/06/10 10:17:36;;;;;;;;;;;26.30;90.70;;;;;;5085825;28;19983;-51
2021/06/10 10:20:04;;;;;;;;;;;26.20;90.70;;;;;;5085345;28;19942;-48
2021/06/10 10:22:31;;;;;;;;;;;26.20;90.70;;;;;;5085819;28;19912;-52
2021/06/10 10:25:00;;;;;;;;;;;26.20;90.60;;;;;;5085057;28;19941;-50
2021/06/10 10:27:26;;;;;;;;;;;26.20;90.80;;;;;;5085529;28;19982;-53
2021/06/10 10:29:53;;;;;;;;;;;26.20;90.80;;;;;;5085522;28;19967;-53
2021/06/10 10:32:24;;;;;;;;;;;26.20;90.80;;;;;;5085258;28;19920;-52
2021/06/10 10:34:50;;;;;;;;;;;26.10;90.70;;;;;;5085301;28;20145;-51
2021/06/10 10:37:21;;;;;;;;;;;26.10;90.70;;;;;;5085536;28;20095;-53
2021/06/10 10:39:48;;;;;;;;;;;26.10;90.60;;;;;;5084740;28;19911;-54
2021/06/10 10:42:28;;;;;;;;;;;26.10;90.70;;;;;;5085150;28;19913;-55
2021/06/10 10:45:10;;;;;;;;;;;26.10;90.70;;;;;;5084640;28;19905;-57
2021/06/10 10:47:42;;;;;;;;;;;26.10;90.80;;;;;;5085042;28;19988;-50
2021/06/10 10:50:08;;;;;;;;;;;26.10;90.80;;;;;;5084602;28;19904;-48
2021/06/10 10:52:40;;;;;;;;;;;26.00;90.80;;;;;;5084179;28;20185;-56
2021/06/10 10:55:14;;;;;;;;;;;26.00;90.80;;;;;;5084801;28;19975;-52
2021/06/10 10:57:41;;;;;;;;;;;26.00;90.70;;;;;;5085066;28;19919;-51
2021/06/10 11:00:13;;;;;;;;;;;26.00;90.70;;;;;;5084522;28;19911;-53
2021/06/10 11:02:51;;;;;;;;;;;26.00;90.70;;;;;;5085528;28;19912;-54
2021/06/10 11:05:38;;;;;;;;;;;26.00;90.70;;;;;;5084659;28;19904;-53
2021/06/10 11:08:04;;;;;;;;;;;26.00;90.70;;;;;;5085057;28;19917;-52
2021/06/10 11:10:39;;;;;;;;;;;26.00;90.70;;;;;;5084503;28;19936;-56
2021/06/10 11:13:15;;;;;;;;;;;26.00;90.70;;;;;;5085056;28;19913;-52
2021/06/10 11:15:44;;;;;;;;;;;26.00;90.80;;;;;;5084612;28;19950;-51
2021/06/10 11:18:11;;;;;;;;;;;25.90;90.90;;;;;;5084788;28;19955;-51
2021/06/10 11:20:37;;;;;;;;;;;25.90;91.00;;;;;;5084396;28;19904;-45
2021/06/10 11:23:35;;;;;;;;;;;25.90;91.00;;;;;;5084642;28;19920;-46
2021/06/10 11:26:03;;;;;;;;;;;25.90;91.00;;;;;;5051393;28;19905;-53
2021/06/10 11:28:34;;;;;;;;;;;25.90;91.00;;;;;;5084196;28;19918;-57
2021/06/10 11:31:17;;;;;;;;;;;25.90;91.00;;;;;;5084541;28;20253;-55
2021/06/10 11:33:43;;;;;;;;;;;25.90;91.00;;;;;;5084531;28;19942;-57
2021/06/10 11:36:10;;;;;;;;;;;25.90;91.00;;;;;;5084032;28;19967;-47
2021/06/10 11:38:38;;;;;;;;;;;25.90;91.10;;;;;;5084262;28;19904;-51
2021/06/10 11:41:06;;;;;;;;;;;25.90;91.20;;;;;;5083990;28;19904;-54
2021/06/10 11:43:33;;;;;;;;;;;25.90;91.20;;;;;;5084032;28;19926;-53
2021/06/10 11:46:01;;;;;;;;;;;25.90;91.30;;;;;;5083996;28;20082;-51
2021/06/10 11:48:40;;;;;;;;;;;25.90;91.30;;;;;;5082477;28;19912;-54
2021/06/10 11:51:07;;;;;;;;;;;25.90;91.30;;;;;;5082833;28;19939;-52
2021/06/10 11:53:34;;;;;;;;;;;25.90;91.30;;;;;;5082134;28;19923;-53
2021/06/10 11:56:00;;;;;;;;;;;25.90;91.30;;;;;;5083044;28;19936;-52
2021/06/10 11:58:30;;;;;;;;;;;25.90;91.40;;;;;;5065532;28;20201;-51
2021/06/10 12:01:02;;;;;;;;;;;25.80;91.40;;;;;;5083375;28;20250;-51
2021/06/10 12:03:33;;;;;;;;;;;25.80;91.40;;;;;;5084399;28;19958;-51
2021/06/10 12:06:00;;;;;;;;;;;25.80;91.40;;;;;;5087529;28;19907;-48
2021/06/10 12:08:27;;;;;;;;;;;25.90;91.50;;;;;;5087977;28;19950;-49
2021/06/10 12:10:57;;;;;;;;;;;25.90;91.50;;;;;;5087736;28;19908;-46
2021/06/10 12:13:24;;;;;;;;;;;25.90;91.50;;;;;;5087866;28;19935;-53
2021/06/10 12:15:51;;;;;;;;;;;25.90;91.70;;;;;;5087546;28;19904;-43
2021/06/10 12:18:17;;;;;;;;;;;25.90;91.60;;;;;;5087679;28;19913;-51
2021/06/10 12:20:44;;;;;;;;;;;25.90;91.60;;;;;;5087071;28;19935;-50
2021/06/10 12:23:16;;;;;;;;;;;25.90;91.60;;;;;;5087692;28;19913;-54
2021/06/10 12:25:47;;;;;;;;;;;25.90;91.60;;;;;;5086877;28;20314;-53
2021/06/10 12:28:25;;;;;;;;;;;25.90;91.80;;;;;;5087537;28;20216;-47
2021/06/10 12:30:58;;;;;;;;;;;25.90;91.80;;;;;;5087277;28;20240;-57
2021/06/10 12:33:24;;;;;;;;;;;25.90;91.90;;;;;;5087524;28;20223;-59
2021/06/10 12:35:51;;;;;;;;;;;25.90;91.90;;;;;;5087094;28;20193;-53
2021/06/10 12:38:18;;;;;;;;;;;25.90;91.80;;;;;;5087567;28;19913;-56
2021/06/10 12:40:46;;;;;;;;;;;26.00;91.90;;;;;;5086640;28;19904;-57
2021/06/10 12:43:21;;;;;;;;;;;26.00;92.00;;;;;;5086673;28;19920;-53
2021/06/10 12:45:47;;;;;;;;;;;26.00;92.00;;;;;;5086386;28;19975;-49
2021/06/10 12:48:27;;;;;;;;;;;26.00;92.10;;;;;;5087075;28;19966;-49
2021/06/10 12:51:28;;;;;;;;;;;26.00;92.00;;;;;;5087185;28;19905;-48
2021/06/10 12:53:55;;;;;;;;;;;26.00;92.10;;;;;;5025040;28;19936;-49
2021/06/10 12:56:29;;;;;;;;;;;26.00;92.10;;;;;;5058752;28;20121;-47
2021/06/10 12:58:55;;;;;;;;;;;26.00;92.10;;;;;;5078126;28;19904;-56
2021/06/10 13:01:26;;;;;;;;;;;26.00;92.00;;;;;;5086352;28;20228;-50
2021/06/10 13:03:55;;;;;;;;;;;26.10;92.00;;;;;;5095054;28;20250;-52
2021/06/10 13:06:29;;;;;;;;;;;26.00;92.10;;;;;;5102598;28;19991;-50
2021/06/10 13:08:55;;;;;;;;;;;26.10;92.10;;;;;;5094951;28;19991;-46
2021/06/10 13:11:22;;;;;;;;;;;26.10;92.30;;;;;;5086456;28;20100;-46
2021/06/10 13:13:50;;;;;;;;;;;26.10;92.40;;;;;;5086309;28;20135;-48
2021/06/10 13:16:17;;;;;;;;;;;26.10;92.40;;;;;;5067883;28;19904;-46
2021/06/10 13:18:44;;;;;;;;;;;26.20;92.50;;;;;;5086288;28;19908;-55
2021/06/10 13:21:13;;;;;;;;;;;26.10;92.60;;;;;;5085964;28;20129;-48
2021/06/10 13:23:57;;;;;;;;;;;26.20;92.70;;;;;;5086103;28;19908;-46
2021/06/10 13:26:29;;;;;;;;;;;26.30;92.80;;;;;;5085740;28;19916;-45
2021/06/10 13:28:56;;;;;;;;;;;26.30;92.70;;;;;;5086020;28;20227;-49
2021/06/10 13:31:27;;;;;;;;;;;26.30;92.60;;;;;;5086293;28;19921;-46
2021/06/10 13:33:54;;;;;;;;;;;26.30;92.70;;;;;;5086116;28;19979;-54
2021/06/10 13:37:05;;;;;;;;;;;26.40;92.70;;;;;;5086204;28;20132;-49
2021/06/10 13:39:11;;;;;;;;;;;26.40;92.90;;;;;;5080202;28;19943;-46
2021/06/10 13:41:37;;;;;;;;;;;26.50;92.80;;;;;;5085563;28;19916;-48
2021/06/10 13:44:04;;;;;;;;;;;26.50;92.60;;;;;;5085766;28;19916;-48
2021/06/10 13:46:30;;;;;;;;;;;26.50;92.60;;;;;;5085386;28;19975;-45
2021/06/10 13:48:56;;;;;;;;;;;26.60;92.50;;;;;;5085644;28;20232;-47
2021/06/10 13:51:22;;;;;;;;;;;26.60;92.40;;;;;;5085808;28;19963;-49
2021/06/10 13:53:50;;;;;;;;;;;26.60;92.50;;;;;;5088040;28;19922;-52
2021/06/10 13:56:16;;;;;;;;;;;26.70;92.60;;;;;;5085717;28;19905;-53
2021/06/10 13:58:43;;;;;;;;;;;26.70;92.40;;;;;;5085422;28;19912;-59
2021/06/10 14:01:09;;;;;;;;;;;26.80;92.40;;;;;;5085437;28;19931;-51
2021/06/10 14:03:36;;;;;;;;;;;26.80;92.40;;;;;;5085416;28;19904;-53
2021/06/10 14:06:02;;;;;;;;;;;26.80;92.50;;;;;;5085497;28;19936;-47
2021/06/10 14:08:30;;;;;;;;;;;26.90;92.50;;;;;;5085292;28;19979;-47
2021/06/10 14:10:56;;;;;;;;;;;26.90;92.40;;;;;;5085559;28;19904;-50
2021/06/10 14:13:24;;;;;;;;;;;27.00;92.40;;;;;;5085347;28;19944;-55
2021/06/10 14:15:50;;;;;;;;;;;27.00;92.20;;;;;;5085046;28;19905;-54
2021/06/10 14:18:16;;;;;;;;;;;27.00;92.10;;;;;;5085630;28;19955;-52
2021/06/10 14:20:42;;;;;;;;;;;27.10;92.00;;;;;;5085264;28;20022;-51